Time;durP1;ratioP1;P1;durP2;ratioP2;P2;SDS_P1;SDS_P2;PMS_P1;PMS_P2;Temp;Humidity;BMP_temperature;BMP_pressure;BME280_temperature;BME280_humidity;BME280_pressure;Samples;Min_cycle;Max_cycle;Signal;HPM_P1;HPM_P2
2022/05/06 00:01:40;;;;;;;14.40;9.70;;;14.90;97.40;;;;;;4973811;28;20372;-88
2022/05/06 00:04:06;;;;;;;12.95;9.52;;;14.90;97.50;;;;;;4980257;28;20029;-88
2022/05/06 00:06:32;;;;;;;12.55;9.88;;;14.90;97.50;;;;;;4989216;28;20049;-89
2022/05/06 00:08:58;;;;;;;12.55;9.43;;;14.90;97.60;;;;;;4994776;28;20443;-88
2022/05/06 00:11:25;;;;;;;16.45;10.52;;;14.90;97.60;;;;;;4982125;28;20080;-88
2022/05/06 00:13:52;;;;;;;13.48;10.98;;;14.90;97.60;;;;;;4993234;28;20025;-88
2022/05/06 00:16:22;;;;;;;13.50;9.80;;;14.90;97.60;;;;;;4977705;28;20049;-89
2022/05/06 00:18:49;;;;;;;14.07;9.70;;;14.90;97.60;;;;;;5016090;28;20022;-88
2022/05/06 00:21:15;;;;;;;11.90;9.73;;;14.90;97.60;;;;;;5003855;28;20030;-89
2022/05/06 00:23:41;;;;;;;12.07;10.07;;;14.90;97.60;;;;;;4994263;28;20026;-88
2022/05/06 00:26:07;;;;;;;11.93;9.65;;;14.90;97.70;;;;;;4994098;28;20054;-89
2022/05/06 00:28:33;;;;;;;13.20;9.23;;;14.80;97.70;;;;;;4976540;28;20030;-89
2022/05/06 00:31:01;;;;;;;13.90;9.43;;;14.80;97.70;;;;;;4977161;28;20031;-88
2022/05/06 00:33:27;;;;;;;11.23;8.90;;;14.80;97.70;;;;;;4976162;28;20030;-88
2022/05/06 00:35:57;;;;;;;12.60;9.13;;;14.80;97.70;;;;;;4993804;28;20042;-89
2022/05/06 00:38:23;;;;;;;14.60;9.73;;;14.80;97.70;;;;;;4993855;28;20057;-88
2022/05/06 00:40:49;;;;;;;14.43;9.30;;;14.80;97.70;;;;;;4995589;28;20094;-88
2022/05/06 00:43:15;;;;;;;10.00;8.38;;;14.80;97.70;;;;;;5021763;28;20057;-88
2022/05/06 00:45:54;;;;;;;11.48;8.45;;;14.80;97.70;;;;;;5031202;28;20482;-88
2022/05/06 00:48:31;;;;;;;12.13;8.80;;;14.80;97.70;;;;;;5033937;28;20125;-88
2022/05/06 00:50:59;;;;;;;11.50;9.00;;;14.80;97.70;;;;;;5004088;28;20111;-88
2022/05/06 00:53:25;;;;;;;11.25;8.27;;;14.80;97.60;;;;;;4994588;28;20101;-88
2022/05/06 00:55:52;;;;;;;12.18;9.05;;;14.80;97.60;;;;;;4976728;28;20650;-88
2022/05/06 00:58:18;;;;;;;12.30;9.07;;;14.80;97.60;;;;;;4996490;28;20029;-88
2022/05/06 01:00:44;;;;;;;12.05;9.10;;;14.70;97.60;;;;;;4996156;28;20084;-88
2022/05/06 01:03:11;;;;;;;11.82;8.82;;;14.70;97.60;;;;;;4995700;28;20525;-88
2022/05/06 01:05:38;;;;;;;14.00;8.93;;;14.70;97.60;;;;;;4995294;28;20026;-88
2022/05/06 01:08:04;;;;;;;10.45;8.50;;;14.70;97.60;;;;;;4996110;28;20034;-89
2022/05/06 01:10:30;;;;;;;11.18;9.23;;;14.80;97.70;;;;;;5012218;28;20049;-88
2022/05/06 01:12:56;;;;;;;10.38;8.40;;;14.70;97.60;;;;;;5000931;28;20030;-88
2022/05/06 01:15:22;;;;;;;12.70;8.85;;;14.70;97.60;;;;;;4992265;28;20027;-88
2022/05/06 01:17:49;;;;;;;12.98;9.15;;;14.70;97.50;;;;;;4976049;28;20053;-87
2022/05/06 01:20:16;;;;;;;12.90;8.98;;;14.70;97.50;;;;;;4976110;28;20057;-88
2022/05/06 01:22:47;;;;;;;14.57;9.13;;;14.70;97.60;;;;;;4993403;28;20049;-88
2022/05/06 01:25:13;;;;;;;14.27;9.18;;;14.70;97.60;;;;;;4992948;28;20022;-88
2022/05/06 01:27:49;;;;;;;11.63;9.07;;;14.70;97.60;;;;;;4989076;28;20054;-88
2022/05/06 01:30:37;;;;;;;17.55;9.80;;;14.70;97.60;;;;;;4975557;28;20022;-88
2022/05/06 01:33:11;;;;;;;12.68;9.38;;;14.70;97.60;;;;;;4975477;28;20053;-88
2022/05/06 01:35:48;;;;;;;13.65;9.32;;;14.80;97.60;;;;;;4975462;28;20509;-88
2022/05/06 01:38:40;;;;;;;11.73;9.30;;;14.70;97.60;;;;;;4975555;28;20077;-88
2022/05/06 01:41:10;;;;;;;13.43;10.10;;;14.70;97.60;;;;;;4982285;28;20039;-88
2022/05/06 01:43:46;;;;;;;15.27;10.88;;;14.70;97.60;;;;;;5009854;28;20087;-88
2022/05/06 01:46:13;;;;;;;15.57;11.10;;;14.70;97.70;;;;;;4994489;28;20049;-89
2022/05/06 01:48:41;;;;;;;15.65;10.60;;;14.70;97.70;;;;;;5012531;28;20018;-88
2022/05/06 01:51:09;;;;;;;16.48;11.38;;;14.70;97.70;;;;;;4994639;28;20486;-88
2022/05/06 01:53:35;;;;;;;13.93;11.13;;;14.70;97.70;;;;;;5012643;28;20034;-88
2022/05/06 01:56:02;;;;;;;15.20;11.57;;;14.70;97.70;;;;;;4993875;28;20112;-89
2022/05/06 01:58:28;;;;;;;14.10;11.55;;;14.60;97.70;;;;;;4976319;28;20031;-88
2022/05/06 02:00:53;;;;;;;17.17;11.23;;;14.60;97.70;;;;;;4975943;28;20037;-88
2022/05/06 02:06:03;;;;;;;16.00;11.77;;;14.60;97.90;;;;;;5033406;28;20121;-88
2022/05/06 02:08:28;;;;;;;15.60;12.60;;;14.60;97.90;;;;;;5033208;28;20053;-88
2022/05/06 02:10:54;;;;;;;14.77;11.18;;;14.60;97.90;;;;;;5014761;28;20592;-88
2022/05/06 02:13:20;;;;;;;14.05;11.30;;;14.50;97.80;;;;;;4995605;28;20117;-88
2022/05/06 02:15:45;;;;;;;16.58;12.25;;;14.60;97.90;;;;;;5011752;28;20018;-88
2022/05/06 02:18:11;;;;;;;13.10;10.90;;;14.50;97.90;;;;;;5012461;28;20026;-88
2022/05/06 02:20:37;;;;;;;16.50;10.57;;;14.50;97.80;;;;;;4995094;28;20029;-88
2022/05/06 02:23:03;;;;;;;13.75;10.10;;;14.40;97.80;;;;;;4995037;28;20569;-88
2022/05/06 02:25:28;;;;;;;12.73;11.05;;;14.40;97.80;;;;;;5007408;28;20060;-88
2022/05/06 02:27:54;;;;;;;11.88;9.48;;;14.40;97.90;;;;;;4983234;28;20045;-88
2022/05/06 02:33:12;;;;;;;11.60;9.73;;;14.30;97.90;;;;;;4992824;28;20046;-88
2022/05/06 02:35:39;;;;;;;13.52;9.77;;;14.30;98.20;;;;;;4992324;28;20065;-88
2022/05/06 02:38:05;;;;;;;10.93;9.57;;;14.30;98.00;;;;;;4975387;28;20023;-88
2022/05/06 02:40:35;;;;;;;13.30;10.10;;;14.30;98.10;;;;;;4992879;28;20097;-89
2022/05/06 02:43:05;;;;;;;14.32;9.55;;;14.30;98.10;;;;;;4989340;28;20030;-88
2022/05/06 02:45:32;;;;;;;10.70;9.23;;;14.30;98.20;;;;;;4979986;28;20030;-88
2022/05/06 02:47:57;;;;;;;13.30;9.88;;;14.20;98.20;;;;;;4991145;28;20023;-88
2022/05/06 02:50:23;;;;;;;11.43;9.25;;;14.20;98.30;;;;;;4975052;28;20027;-89
2022/05/06 02:52:49;;;;;;;11.18;9.30;;;14.20;98.40;;;;;;4974922;28;20072;-87
2022/05/06 02:55:15;;;;;;;10.38;9.27;;;14.20;98.40;;;;;;4974811;28;20108;-88
2022/05/06 02:57:41;;;;;;;10.93;8.90;;;14.20;98.50;;;;;;4977443;28;20402;-88
2022/05/06 03:00:07;;;;;;;13.38;9.60;;;14.20;98.50;;;;;;4991171;28;20032;-88
2022/05/06 03:02:33;;;;;;;10.70;9.02;;;14.20;98.70;;;;;;4992210;28;20069;-88
2022/05/06 03:04:59;;;;;;;10.38;9.30;;;14.20;98.70;;;;;;4974253;28;20027;-88
2022/05/06 03:07:24;;;;;;;11.55;7.72;;;14.20;98.80;;;;;;4975100;28;20018;-88
2022/05/06 03:09:52;;;;;;;11.77;8.40;;;14.20;98.80;;;;;;4991019;28;20050;-88
2022/05/06 03:12:18;;;;;;;11.50;8.68;;;14.20;98.90;;;;;;5010043;28;20510;-88
2022/05/06 03:14:44;;;;;;;11.10;8.50;;;14.20;98.90;;;;;;4988575;28;20547;-88
2022/05/06 03:17:10;;;;;;;9.68;8.13;;;14.30;99.00;;;;;;4973922;28;20553;-89
2022/05/06 03:19:36;;;;;;;11.32;8.27;;;14.20;98.90;;;;;;4979963;28;20026;-88
2022/05/06 03:22:02;;;;;;;10.80;8.75;;;14.30;99.00;;;;;;4974098;28;20054;-88
2022/05/06 03:24:28;;;;;;;13.60;8.75;;;14.20;99.00;;;;;;4973113;28;20038;-88
2022/05/06 03:26:54;;;;;;;11.77;8.88;;;14.20;99.00;;;;;;4973565;28;20035;-89
2022/05/06 03:29:19;;;;;;;10.55;8.98;;;14.20;99.00;;;;;;4972755;28;20038;-88
2022/05/06 03:31:45;;;;;;;9.52;8.18;;;14.20;99.00;;;;;;4973933;28;20033;-89
2022/05/06 03:34:11;;;;;;;11.50;8.55;;;14.10;99.00;;;;;;4973392;28;20030;-88
2022/05/06 03:36:38;;;;;;;11.00;8.57;;;14.10;99.10;;;;;;4990771;28;20058;-89
2022/05/06 03:39:04;;;;;;;10.45;9.05;;;14.10;99.10;;;;;;4997493;28;20018;-88
2022/05/06 03:41:30;;;;;;;11.00;9.07;;;14.10;99.10;;;;;;4987615;28;20023;-88
2022/05/06 03:43:56;;;;;;;11.30;9.38;;;14.10;99.40;;;;;;5126373;23;20045;-86
2022/05/06 03:46:22;;;;;;;12.65;9.93;;;14.10;99.20;;;;;;5018272;28;20041;-86
2022/05/06 03:48:47;;;;;;;10.10;8.70;;;14.00;99.30;;;;;;5013483;28;20102;-85
2022/05/06 03:51:22;;;;;;;11.23;9.43;;;14.00;99.40;;;;;;4979323;28;20109;-86
2022/05/06 03:53:49;;;;;;;11.07;9.20;;;14.10;99.50;;;;;;4977975;28;20035;-86
2022/05/06 03:56:15;;;;;;;11.43;9.30;;;14.10;99.50;;;;;;4994741;28;20101;-87
2022/05/06 03:58:40;;;;;;;15.27;9.38;;;14.00;99.50;;;;;;4995053;28;20057;-86
2022/05/06 04:01:09;;;;;;;10.32;9.07;;;14.00;99.50;;;;;;4994876;28;20457;-86
2022/05/06 04:03:35;;;;;;;12.38;8.98;;;14.00;99.60;;;;;;4998081;28;20112;-87
2022/05/06 04:06:01;;;;;;;14.02;9.40;;;14.10;99.60;;;;;;5015432;28;20025;-86
2022/05/06 04:08:27;;;;;;;11.07;9.00;;;14.10;99.60;;;;;;4998045;28;20041;-86
2022/05/06 04:10:53;;;;;;;14.30;10.43;;;14.10;99.60;;;;;;4996788;28;20034;-86
2022/05/06 04:13:19;;;;;;;13.48;9.60;;;14.10;99.70;;;;;;4997270;28;20037;-86
2022/05/06 04:15:48;;;;;;;11.85;8.85;;;14.10;99.70;;;;;;4996880;28;20104;-86
2022/05/06 04:18:14;;;;;;;13.10;9.38;;;14.10;99.70;;;;;;5014573;28;20507;-85
2022/05/06 04:23:30;;;;;;;14.00;9.75;;;14.10;99.70;;;;;;5014818;28;20099;-87
2022/05/06 04:25:58;;;;;;;13.57;9.97;;;14.10;99.70;;;;;;5014595;28;20022;-86
2022/05/06 04:28:25;;;;;;;12.85;10.52;;;14.10;99.80;;;;;;4997110;28;20404;-86
2022/05/06 04:30:54;;;;;;;13.82;10.77;;;14.10;99.80;;;;;;4997029;28;20026;-86
2022/05/06 04:33:20;;;;;;;14.45;10.68;;;14.00;99.90;;;;;;4996841;28;20034;-86
2022/05/06 04:35:46;;;;;;;17.08;10.93;;;14.00;99.90;;;;;;5013475;28;20026;-86
2022/05/06 04:38:12;;;;;;;14.63;10.95;;;14.00;99.90;;;;;;5015341;28;20022;-86
2022/05/06 04:40:40;;;;;;;15.27;11.50;;;13.90;99.90;;;;;;5014831;28;20022;-86
2022/05/06 04:43:06;;;;;;;13.40;11.02;;;14.00;99.90;;;;;;5022780;28;20022;-86
2022/05/06 04:45:43;;;;;;;14.65;11.20;;;13.90;99.90;;;;;;5008759;28;20046;-87
2022/05/06 04:48:11;;;;;;;17.13;11.32;;;13.90;99.90;;;;;;5004864;28;20041;-85
2022/05/06 04:50:37;;;;;;;15.60;11.00;;;13.90;99.90;;;;;;4990137;28;20037;-86
2022/05/06 04:53:07;;;;;;;13.00;10.15;;;13.90;99.90;;;;;;4989606;28;20027;-85
2022/05/06 04:55:34;;;;;;;16.10;10.80;;;13.90;99.90;;;;;;4988786;28;20022;-87
2022/05/06 04:58:00;;;;;;;15.23;10.55;;;13.90;99.90;;;;;;4988990;28;20027;-87
2022/05/06 05:00:25;;;;;;;13.02;10.07;;;13.80;99.90;;;;;;4991107;28;20347;-87
2022/05/06 05:02:51;;;;;;;12.85;9.65;;;13.80;99.90;;;;;;5007916;28;20029;-87
2022/05/06 05:05:18;;;;;;;11.77;9.23;;;13.80;99.90;;;;;;5025790;28;20010;-86
2022/05/06 05:07:44;;;;;;;14.80;10.98;;;13.80;99.90;;;;;;5009485;28;20107;-86
2022/05/06 05:10:10;;;;;;;14.07;10.27;;;13.70;99.90;;;;;;5009871;28;20030;-86
2022/05/06 05:12:36;;;;;;;15.35;10.35;;;13.70;99.90;;;;;;5009546;28;20022;-87
2022/05/06 05:15:03;;;;;;;14.30;10.48;;;13.70;99.90;;;;;;5031266;28;20017;-86
2022/05/06 05:17:28;;;;;;;12.43;10.32;;;13.70;99.90;;;;;;5008154;28;20020;-87
2022/05/06 05:19:54;;;;;;;12.68;10.18;;;13.70;99.90;;;;;;5007026;28;20014;-85
2022/05/06 05:22:20;;;;;;;13.52;10.25;;;13.70;99.90;;;;;;4983361;28;20030;-87
2022/05/06 05:24:46;;;;;;;13.57;10.40;;;13.70;99.90;;;;;;4977247;28;20121;-87
2022/05/06 05:27:13;;;;;;;15.13;10.25;;;13.70;99.90;;;;;;4993728;28;20022;-87
2022/05/06 05:29:39;;;;;;;15.68;9.77;;;13.80;99.90;;;;;;4995298;28;20577;-87
2022/05/06 05:32:06;;;;;;;11.80;9.32;;;13.70;99.90;;;;;;5013583;28;20545;-87
2022/05/06 05:34:31;;;;;;;12.98;9.10;;;13.70;99.90;;;;;;5012475;28;20108;-87
2022/05/06 05:36:57;;;;;;;15.20;10.40;;;13.70;99.90;;;;;;5013557;28;20068;-87
2022/05/06 05:39:23;;;;;;;19.10;14.10;;;13.70;99.90;;;;;;4995602;28;20022;-86
2022/05/06 05:41:48;;;;;;;19.40;10.88;;;13.70;99.90;;;;;;4995084;28;20117;-87
2022/05/06 05:49:43;;;;;;;11.40;8.98;;;13.70;99.90;;;;;;5016108;28;20325;-87
2022/05/06 05:52:09;;;;;;;12.52;8.25;;;13.70;99.90;;;;;;4997699;28;20026;-87
2022/05/06 05:54:35;;;;;;;12.48;7.75;;;13.80;99.90;;;;;;4994967;28;20037;-86
2022/05/06 05:57:00;;;;;;;11.18;7.43;;;13.70;99.90;;;;;;4995772;28;20030;-87
2022/05/06 05:59:26;;;;;;;10.73;8.65;;;13.80;99.90;;;;;;5034159;28;20033;-85
2022/05/06 06:01:51;;;;;;;11.05;8.18;;;13.70;99.90;;;;;;5016963;28;20057;-86
2022/05/06 06:04:17;;;;;;;10.23;8.13;;;13.80;99.90;;;;;;5013837;28;20029;-85
2022/05/06 06:06:43;;;;;;;13.38;8.63;;;13.70;99.90;;;;;;4995787;28;20450;-87
2022/05/06 06:09:09;;;;;;;211.32;150.25;;;13.80;99.90;;;;;;4996847;28;20099;-87
2022/05/06 06:11:35;;;;;;;19.23;14.57;;;13.80;99.90;;;;;;4996119;28;20060;-85
2022/05/06 06:14:02;;;;;;;11.65;8.68;;;13.90;99.90;;;;;;4995014;28;20478;-87
2022/05/06 06:16:28;;;;;;;10.25;8.15;;;13.90;99.90;;;;;;4994791;28;20037;-84
2022/05/06 06:18:58;;;;;;;8.82;7.90;;;13.90;99.90;;;;;;5013217;28;20026;-85
2022/05/06 06:21:27;;;;;;;12.02;7.63;;;13.90;99.80;;;;;;5000914;28;20030;-85
2022/05/06 06:23:53;;;;;;;9.77;7.00;;;14.00;99.80;;;;;;4993134;28;20030;-85
2022/05/06 06:26:19;;;;;;;9.93;7.30;;;14.00;99.70;;;;;;4975025;28;20038;-85
2022/05/06 06:28:44;;;;;;;10.52;7.70;;;14.00;99.60;;;;;;4993400;28;20030;-86
2022/05/06 06:31:10;;;;;;;10.30;7.10;;;14.00;99.60;;;;;;4993948;28;20023;-85
2022/05/06 06:33:37;;;;;;;9.15;6.70;;;14.10;99.50;;;;;;4980252;28;20372;-85
2022/05/06 06:36:04;;;;;;;10.50;6.95;;;14.10;99.40;;;;;;4986274;28;20050;-87
2022/05/06 06:38:30;;;;;;;8.40;6.55;;;14.10;99.40;;;;;;4996448;28;20486;-86
2022/05/06 06:40:55;;;;;;;10.15;6.65;;;14.20;99.30;;;;;;4996597;28;20389;-86
2022/05/06 06:43:21;;;;;;;11.05;6.80;;;14.20;99.30;;;;;;4997175;28;20052;-87
2022/05/06 06:45:47;;;;;;;9.27;6.47;;;14.30;99.30;;;;;;4997587;28;20030;-85
2022/05/06 06:48:12;;;;;;;9.30;6.25;;;14.30;99.20;;;;;;4996432;28;20045;-86
2022/05/06 06:50:39;;;;;;;7.43;5.93;;;14.30;99.00;;;;;;4999491;28;20030;-85
2022/05/06 06:53:05;;;;;;;10.10;5.70;;;14.40;99.00;;;;;;5016663;28;20034;-86
2022/05/06 06:55:31;;;;;;;10.75;5.68;;;14.40;98.80;;;;;;5017481;28;20018;-86
2022/05/06 06:57:56;;;;;;;7.13;4.97;;;14.40;98.60;;;;;;4996611;28;20022;-86
2022/05/06 07:00:22;;;;;;;6.97;4.80;;;14.40;98.40;;;;;;4995250;28;20076;-85
2022/05/06 07:02:48;;;;;;;7.35;4.70;;;14.40;98.20;;;;;;4995522;28;20022;-86
2022/05/06 07:05:14;;;;;;;7.38;4.93;;;14.40;98.20;;;;;;5004568;28;20514;-86
2022/05/06 07:13:04;;;;;;;6.05;4.90;;;14.50;97.80;;;;;;4992962;28;20030;-85
2022/05/06 07:15:31;;;;;;;4.32;3.92;;;14.50;97.60;;;;;;4996238;28;20030;-85
2022/05/06 07:17:58;;;;;;;5.78;4.25;;;14.60;97.60;;;;;;5009433;28;20109;-85
2022/05/06 07:20:23;;;;;;;5.38;4.10;;;14.70;97.40;;;;;;4975577;28;20022;-88
2022/05/06 07:22:49;;;;;;;7.50;4.10;;;14.70;97.30;;;;;;4975587;28;20027;-88
2022/05/06 07:25:15;;;;;;;4.75;3.88;;;14.70;97.30;;;;;;4974545;28;20375;-85
2022/05/06 07:27:40;;;;;;;5.55;3.80;;;14.70;97.20;;;;;;4975206;28;20026;-85
2022/05/06 07:30:09;;;;;;;6.47;4.03;;;14.80;97.00;;;;;;4987671;28;20419;-87
2022/05/06 07:32:35;;;;;;;5.82;3.55;;;14.80;96.80;;;;;;4992955;28;20026;-85
2022/05/06 07:35:01;;;;;;;4.18;3.60;;;14.90;96.70;;;;;;4994168;28;20057;-86
2022/05/06 07:37:33;;;;;;;3.92;3.40;;;15.00;96.60;;;;;;5013948;28;20079;-86
2022/05/06 07:39:59;;;;;;;7.35;3.63;;;15.00;96.50;;;;;;4994424;28;20022;-86
2022/05/06 07:42:25;;;;;;;6.55;3.58;;;15.10;96.40;;;;;;5011576;28;20033;-86
2022/05/06 07:44:51;;;;;;;7.03;3.63;;;15.10;96.10;;;;;;4993728;28;20033;-86
2022/05/06 07:47:16;;;;;;;7.13;3.08;;;15.20;96.00;;;;;;5011963;28;20022;-83
2022/05/06 07:49:42;;;;;;;4.68;3.60;;;15.20;95.90;;;;;;4990828;28;20030;-85
2022/05/06 07:52:08;;;;;;;3.95;3.03;;;15.30;95.70;;;;;;4975041;28;20033;-86
2022/05/06 07:54:33;;;;;;;4.72;3.17;;;15.40;95.50;;;;;;4991906;28;20109;-86
2022/05/06 07:56:59;;;;;;;4.88;3.25;;;15.40;95.30;;;;;;4975860;28;20098;-86
2022/05/06 07:59:24;;;;;;;3.90;2.97;;;15.50;95.20;;;;;;4974609;28;20023;-86
2022/05/06 08:04:36;;;;;;;5.93;3.20;;;15.70;94.90;;;;;;5001624;28;20088;-86
2022/05/06 08:07:03;;;;;;;4.72;3.10;;;15.80;94.80;;;;;;4994414;28;20029;-86
2022/05/06 08:09:28;;;;;;;6.72;3.25;;;15.80;94.50;;;;;;4982504;28;20030;-86
2022/05/06 08:11:54;;;;;;;4.55;3.33;;;15.90;94.30;;;;;;4978905;28;20026;-86
2022/05/06 08:14:20;;;;;;;5.90;3.60;;;15.90;94.30;;;;;;4985292;28;20041;-87
2022/05/06 08:16:47;;;;;;;3.33;3.03;;;15.90;94.10;;;;;;4993462;28;20030;-87
2022/05/06 08:19:13;;;;;;;4.40;3.33;;;16.00;93.90;;;;;;5009728;28;20026;-86
2022/05/06 08:21:39;;;;;;;6.82;3.10;;;16.00;93.80;;;;;;5011469;28;20497;-85
2022/05/06 08:24:05;;;;;;;4.15;3.05;;;16.00;93.70;;;;;;5027209;28;20025;-83
2022/05/06 08:26:31;;;;;;;4.60;2.90;;;16.00;93.60;;;;;;5034191;28;20022;-83
2022/05/06 08:28:57;;;;;;;9.02;2.92;;;16.10;93.50;;;;;;4997168;28;20068;-86
2022/05/06 08:31:22;;;;;;;4.80;2.75;;;16.10;93.40;;;;;;4997202;28;20453;-85
2022/05/06 08:33:48;;;;;;;9.43;2.80;;;16.10;93.00;;;;;;5014807;28;20070;-86
2022/05/06 08:36:14;;;;;;;4.50;2.90;;;16.10;93.10;;;;;;5010781;28;20034;-85
2022/05/06 08:38:39;;;;;;;5.32;2.60;;;16.10;92.80;;;;;;4995794;28;20064;-86
2022/05/06 08:41:05;;;;;;;2.58;2.38;;;16.20;92.60;;;;;;4984334;28;20512;-85
2022/05/06 08:43:32;;;;;;;6.10;2.55;;;16.20;92.50;;;;;;4993366;28;20037;-85
2022/05/06 08:51:33;;;;;;;4.68;2.40;;;16.60;92.10;;;;;;5009446;28;20548;-85
2022/05/06 08:53:59;;;;;;;3.22;2.80;;;16.60;91.80;;;;;;4998004;28;20657;-86
2022/05/06 08:56:24;;;;;;;6.25;3.00;;;16.70;91.70;;;;;;5015182;28;20033;-85
2022/05/06 08:58:50;;;;;;;6.00;2.75;;;16.70;91.50;;;;;;5018313;28;20014;-86
2022/05/06 09:01:21;;;;;;;8.60;2.97;;;16.90;91.50;;;;;;4987222;28;20022;-85
2022/05/06 09:03:48;;;;;;;5.27;2.60;;;17.00;91.00;;;;;;5001772;28;20065;-86
2022/05/06 09:06:25;;;;;;;6.53;2.40;;;17.20;91.20;;;;;;5000632;28;20026;-85
2022/05/06 09:08:52;;;;;;;4.07;2.53;;;17.30;90.90;;;;;;5018955;28;20434;-86
2022/05/06 09:12:40;;;;;;;6.90;2.78;;;17.40;90.70;;;;;;5000295;28;20033;-85
2022/05/06 09:14:05;;;;;;;2.92;2.70;;;17.40;90.50;;;;;;5015582;28;20029;-86
2022/05/06 09:16:40;;;;;;;5.55;2.92;;;17.50;90.10;;;;;;4988783;28;20466;-85
2022/05/06 09:19:12;;;;;;;4.35;2.95;;;17.50;89.70;;;;;;4995671;28;20112;-85
2022/05/06 09:21:39;;;;;;;4.85;2.90;;;17.70;88.90;;;;;;5015420;28;20021;-85
2022/05/06 09:24:19;;;;;;;7.70;3.00;;;18.30;88.40;;;;;;5015814;28;20485;-86
2022/05/06 09:27:03;;;;;;;3.25;2.30;;;18.90;87.50;;;;;;4997703;28;20038;-87
2022/05/06 09:29:34;;;;;;;5.38;2.35;;;19.10;86.80;;;;;;5012017;28;20398;-85
2022/05/06 09:32:16;;;;;;;7.05;2.60;;;19.20;85.70;;;;;;5015275;28;20026;-86
2022/05/06 09:34:44;;;;;;;3.65;3.33;;;19.20;85.40;;;;;;4995391;28;20084;-85
2022/05/06 09:37:10;;;;;;;5.50;2.72;;;19.10;85.00;;;;;;4996732;28;20109;-86
2022/05/06 09:39:38;;;;;;;4.35;2.70;;;19.00;84.40;;;;;;4994989;28;20084;-85
2022/05/06 09:42:08;;;;;;;4.15;2.72;;;19.10;83.90;;;;;;4996143;28;20026;-85
2022/05/06 11:11:44;;;;;;;4.22;2.58;;;21.80;66.50;;;;;;4839810;29;20060;-88
2022/05/06 11:29:13;;;;;;;5.25;3.55;;;22.30;66.20;;;;;;4794348;29;20094;-88
2022/05/06 11:39:40;;;;;;;2.88;2.67;;;22.10;65.30;;;;;;4838371;29;20056;-88
2022/05/06 11:53:35;;;;;;;4.43;3.15;;;22.20;65.40;;;;;;4823191;29;20118;-88
2022/05/06 12:00:34;;;;;;;4.95;3.00;;;22.30;65.50;;;;;;4829285;29;20142;-88
2022/05/06 12:07:38;;;;;;;6.07;3.08;;;22.20;64.90;;;;;;4874651;29;20079;-89
2022/05/06 12:24:21;;;;;;;5.50;3.65;;;22.30;65.00;;;;;;4917461;29;20042;-89
2022/05/06 12:34:37;;;;;;;5.78;3.45;;;22.10;65.20;;;;;;4919703;29;20139;-88
2022/05/06 12:51:54;;;;;;;5.38;3.22;;;21.60;65.20;;;;;;4861395;29;20026;-88
2022/05/06 13:22:52;;;;;;;7.50;2.97;;;21.40;66.60;;;;;;4792362;29;20076;-88
2022/05/06 13:33:13;;;;;;;5.32;3.28;;;21.20;66.40;;;;;;4734024;30;20095;-88
2022/05/06 13:46:53;;;;;;;4.65;2.83;;;21.10;66.20;;;;;;4710220;30;20441;-88
2022/05/06 13:50:23;;;;;;;4.07;2.83;;;21.00;66.00;;;;;;4739985;30;20038;-88
2022/05/06 14:14:50;;;;;;;3.35;3.05;;;20.60;66.40;;;;;;4752287;30;20046;-88
2022/05/06 14:18:30;;;;;;;5.15;3.00;;;20.60;66.50;;;;;;4752542;30;20032;-88
